• Join FlightAware (Why Join?)
  • Login
  • US Flag 
02:45PM EDT


 

Airport Tracker/Info


-or-


 

Live Flight TrackerFlight Track Log ✈ N935SS ✈ 14-May-2013 ✈ CYYZ - KHPN

Flight Track Log - Related Links

Times and Time Zones

All times are in EDT time to prevent confusion due to time zone crossing. See the N935SS flight status page for this flight to view local times or setup timezone preferences in your user account.

Time Position Orientation Groundspeed Altitude Reporting Facility
EDT Latitude Longitude Course Direction KTS MPH feet Rate Location/Type
07:28PM 43.6333 -79.6333 119° Southeast 210 242 2,600  Level Toronto Center
07:29PM 43.5833 -79.7000 224° Southwest 250 288 6,000 2,220 Climbing Toronto Center
07:30PM 43.5167 -79.6500 151° Southeast 290 334 7,100 480 Climbing Toronto Center
07:31PM 43.5000 -79.5667 105° East 290 334 7,000 -60 Descending Toronto Center
07:32PM 43.4833 -79.4500 101° East 290 334 7,000 420 Level Toronto Center
07:33PM 43.4667 -79.3333 101° East 290 334 7,900 1,920 Climbing Toronto Center
07:34PM 43.2252 -78.5155 119° Southeast  Level Estimated
07:34PM 43.4667 -79.2167 90° East 310 357 10,900  Level Toronto Center
07:35PM 43.4333 -79.0833 109° East 370 426 13,900 2,940 Climbing Toronto Center
07:36PM 43.4167 -78.9167 98° East 390 449 16,800 2,820 Climbing Toronto Center
07:37PM 43.3667 -78.7833 117° Southeast 420 483 19,600 2,640 Climbing Toronto Center
07:38PM 43.3269 -78.7225 132° Southeast 404 465 21,500 2,460 Climbing Cleveland Center
07:39PM 43.2600 -78.5822 123° Southeast 425 489 24,000 2,340 Climbing Cleveland Center
07:40PM 43.1886 -78.4392 124° Southeast 438 504 26,200 2,100 Climbing Cleveland Center
07:41PM 43.1128 -78.2911 125° Southeast 458 527 28,200 1,860 Climbing Cleveland Center
07:42PM 43.0614 -78.1253 113° Southeast 469 540 30,000 1,380 Climbing Cleveland Center
07:43PM 43.0136 -77.9453 110° East 483 556 31,000 480 Climbing Cleveland Center
07:44PM 42.9653 -77.7517 109° East 512 589 31,000  Level Cleveland Center
07:45PM 42.9103 -77.5556 111° Southeast 537 618 31,000  Level Cleveland Center
07:47PM 42.7775 -77.0603 110° East 572 658 31,000  Level Boston Center
07:48PM 42.7319 -76.8983 111° Southeast 567 652 31,000  Level Boston Center
07:49PM 42.6661 -76.6564 110° East 567 652 31,000 -60 Level Boston Center
07:50PM 42.6108 -76.4522 110° East 567 652 30,900 -600 Descending Boston Center
07:51PM 42.5533 -76.2511 111° Southeast 567 652 29,900 -960 Descending Boston Center
07:52PM 42.5047 -76.0764 111° Southeast 562 647 29,000 -1,440 Descending Boston Center
07:53PM 42.4483 -75.8789 111° Southeast 562 647 27,100 -1,980 Descending Boston Center
07:54PM 42.3933 -75.6958 112° Southeast 557 641 25,100 -1,980 Descending Boston Center
07:55PM 42.3403 -75.5075 111° Southeast 539 620 23,200 -1,920 Descending Boston Center
07:56PM 42.2811 -75.2997 111° Southeast 539 620 21,300 -1,740 Descending Boston Center
07:57PM 42.2425 -75.1661 111° Southeast 521 600 19,800 -1,680 Descending Boston Center
07:58PM 42.1881 -74.9956 113° Southeast 478 550 18,000 -900 Descending Boston Center
07:59PM 42.1289 -74.8447 118° Southeast 459 528 18,000  Level Boston Center
08:00PM 42.0772 -74.7225 120° Southeast 454 522 18,000 -840 Level Boston Center
08:01PM 42.0097 -74.5525 118° Southeast 471 542 16,400 -1,620 Descending Boston Center
08:02PM 41.9356 -74.3825 120° Southeast 445 512 14,500 -1,680 Descending Boston Center
08:03PM 41.8736 -74.2328 119° Southeast 430 495 12,700 -1,560 Descending Boston Center
08:05PM 41.8128 -74.1086 123° Southeast 409 471 11,100 -840 Descending Boston Center
08:06PM 41.7125 -73.9892 138° Southeast 372 428 10,900 -1,020 Descending Boston Center
08:07PM 41.6233 -73.9564 165° South 338 389 9,100 -1,620 Descending Boston Center
08:08PM 41.5444 -73.9239 163° South 312 359 7,700 -1,560 Descending Boston Center
08:08PM 41.5000 -73.9167 173° South 283 326 6,800 -1,260 Descending New York TRACON
08:09PM 41.4333 -73.8667 151° Southeast 283 326 5,800 -1,320 Descending New York TRACON
08:10PM 41.3667 -73.8167 151° Southeast 283 326 4,200 -900 Descending New York TRACON
08:11PM 41.3000 -73.7500 143° Southeast 278 320 4,000 -120 Descending New York TRACON
08:12PM 41.2333 -73.7000 151° Southeast 277 319 4,000  Level New York TRACON
08:13PM 41.1667 -73.6500 151° Southeast 283 326 4,000 -780 Level New York TRACON
08:14PM 41.1000 -73.6000 151° Southeast 273 314 2,500 -1,020 Descending New York TRACON
08:15PM 41.0333 -73.5667 159° South 266 306 2,000 -300 Descending New York TRACON
08:16PM 40.9667 -73.5500 169° South 250 288 2,000  Level New York TRACON
08:17PM 40.9667 -73.6167 270° West 185 213 2,000 -60 Level New York TRACON
08:18PM 41.0000 -73.6500 323° Northwest 146 168 1,900 -420 Descending New York TRACON
08:19PM 41.0333 -73.6833 323° Northwest 123 142 1,200 -720 Descending New York TRACON
08:21PM 41.0667 -73.7000 246° West  Level FlightAware Approximate
08:28PM 41.0669 -73.7076 246° West  Level Estimated
08:29PM 41.0667 -73.7000 246° West  Level FlightAware Approximate